Wetterstation Rottenburg Seebronn / 442m msl / http://mut-lambrecht.de
LETZTE AKTUALISIERUNG UM: 22:30 DATUM: Juli 24 2017, time of next update: 22:35
Aktuelles WetterClear/Night Aktuelle Temperatur 13.2°C (55.8°F), Apparent temp 13.1°C
Höchsttemperatur (seit Mitternacht)20.3°C um: 16:15 Tiefsttemperatur (seit Mitternacht)13.1°C um: 06:04
Windgeschwindigkeit (10 Minuten )1.9 kmh (1.0 kts) Windrichtung (Dir) (10 Minuten )SW (216°)
Windchill Temperatur 13.2°C Windspitzen (letzte Std)7.3 kmh (3.9 kts) um: 21:49
Windspitzen (seit Mitternacht)42.6 kmh (23.0 kts) um: 11:07 Höchstes Windmittel / Minute (seit Mitternacht)20.2 kmh (10.9 kts) um: 11:09
Regenmenge (letzte Std)0.0 mm Regenmenge (seit Mitternacht)1.4 mm (0.06 in.) at 20:03
Regenmenge diesen Monat 69.7 mm (2.74 in.) Regenmenge seit Jahresbeginn 300.2 mm (11.82 in.)
Höchste Regenmenge pro Minute (letzte Std)0.0 mm/min Höchste Regenmenge pro Stunde (letzte 6 Std)0.0 mm/stunde
Regenmenge Gestern 10.6 mm Taupunkt 9.8°C (Wet Bulb :11.5°C )
Luftfeuchtigkeit 80 %, Humidex 14.4°C Aktueller Luftdruck (auf Meereshöhe bezogen)1011.4 hPa
Luftdrucktendenz -0.2 hPa (letzte Std) Trend (letzte 1 Std)gleichbleibend
Luftdrucktendenz (letzte 12 Std)+2.0 hPa Luftdrucktendenz (letzte 6 Std)-0.9 hPa



Weather report/warning/Metars

Stuttgart-Echterdingen, Germany (EDDS) 48-41N 009-13E 391M
Jul 24, 2017 - 03:50 PM EDT / 2017.07.24 1950 UTC
Wind: from the SSW (210 degrees) at 3 MPH (3 KT) (direction variable):0
Visibility: greater than 7 mile(s):0
Temperature: 55 F (13 C)
Dew Point: 51 F (11 C)
Relative Humidity: 87%
Pressure (altimeter): 29.85 in. Hg (1011 hPa)
ob: EDDS 241950Z 21003KT 140V250 CAVOK 13/11 Q1011 NOSIG
cycle: 20
Karlsruhe, Baden Wurttemberg, Germany (EDSB) 48-46-43N 008-04-47E
Jul 24, 2017 - 03:50 PM EDT / 2017.07.24 1950 UTC
Wind: from the SSW (210 degrees) at 3 MPH (3 KT):0
Visibility: greater than 7 mile(s):0
Sky conditions: mostly cloudy
Temperature: 59 F (15 C)
Dew Point: 55 F (13 C)
Relative Humidity: 87%
Pressure (altimeter): 29.85 in. Hg (1011 hPa)
ob: EDSB 241950Z 21003KT 9999 FEW017 SCT022 BKN079 15/13 Q1011
cycle: 20
Lahr, CAN-AFB, Germany (EDTL) 48-22-09N 007-49-40E
Jul 24, 2017 - 01:50 PM EDT / 2017.07.24 1750 UTC
Wind: from the SSW (200 degrees) at 8 MPH (7 KT):0
Visibility: greater than 7 mile(s):0
Sky conditions: mostly cloudy
Weather: light rain
Temperature: 59 F (15 C)
Dew Point: 59 F (15 C)
Relative Humidity: 100%
Pressure (altimeter): 29.88 in. Hg (1012 hPa)
ob: EDTL 241750Z 20007KT 9999 -RA FEW009 BKN026 BKN058 15/15 Q1012
cycle: 18
Laupheim, Germany (ETHL) 48-13N 009-55E 550M
Jul 24, 2017 - 03:20 PM EDT / 2017.07.24 1920 UTC
Wind: from the SW (230 degrees) at 7 MPH (6 KT):0
Visibility: greater than 7 mile(s):0
Sky conditions: mostly cloudy
Temperature: 55 F (13 C)
Dew Point: 50 F (10 C)
Relative Humidity: 81%
Pressure (altimeter): 29.88 in. Hg (1012 hPa)
ob: ETHL 241920Z 23006KT 9999 FEW040 BKN100 13/10 Q1012 BLU
cycle: 19


Klicken Sie hier, um zu den Durchschnitts-, Extrem-, Monats- oder Tageswerten zu gelangen


Die Wetterdaten werden alle 5 Minuten aktualisiert.

Drücken Sie gegebenenfalls auf "Aktualisieren" in Ihrem Browser, um die aktuellsten Daten zu erhalten.

Created by "Weather Display" software version 10.37S at this start time/date 23:14:12 18.10.2016